Pagina principale
METAR-TAF:

METAR-TAF

Aeroporti :

Belize City, Belize

Aeroporto Internazionale Philip S. W. Goldson

latitudine: 17-32N, longitudine: 088-18W, altezza: 5 m

Osservazione

Il bollettino è stato emesso 1 ora e 14 minuti fa, alle 00:00 UTC
Vento 7 kt da est
Temperature 29°C
Umidità 79%
Pressione 1013 hPa
Visibilità 10 km o più
Nubi sparse ad un'altezza di 2200 ft

METAR: MZBZ 240000Z 10007KT 9999 SCT022 29/25 A2992 Q1013 NOSIG

Ora: 19:14 (01:14 UTC)

Previsione

Il bollettino è stato emesso 4 ore e 14 minuti fa, alle 21:00 UTC
Previsione valida dal 24 alle 00 UTC al 24 alle 24 UTC
Vento 10 kt da est
Visibilità 10 km o più
Nubi sparse ad un'altezza di 2300 ft

TAF: MZBZ 232100Z 2400/2424 09010KT 9999 SCT023

Osservazioni e previsioni meteorologiche di più di 4000 aeroporti (messaggi METAR e TAF).

Le stazioni disponibili sono rappresentate dai dischi gialli e rossi sulla carta.

Puntare il mouse per vedere il nome della stazione.

Clicca sopra per visualizzare le osservazioni e previsioni meteorologiche.

Per cambiare la mappa : fare clic sui pulsanti verdi con una croce nera per ingrandire, il pulsante verde con un trattino per diminuire, o sulla freccia verde per le mappe adiacenti.


METAR-TAF: